This is the latest recevied weather packets stored in our database for station/object EA1GGY-1. If no packets are shown the sender has not sent any weather packets the latest 1 day(s).
| Time | Temp. | Humidity | Pressure | Rain* | Wind** | Luminosity | Snow |
|---|---|---|---|---|---|---|---|
| 1778057939 | 8.89° C | 62% | 1009 hPa | - | - | - | - |
| 1778055537 | 8.33° C | 65% | 1009 hPa | - | - | - | - |
| 1778054935 | 8.33° C | 67% | 1009.1 hPa | - | - | - | - |
| 1778052531 | 7.22° C | 76% | 1009.1 hPa | - | - | - | - |
| 1778051931 | 6.67° C | 76% | 1009 hPa | - | - | - | - |
| 1778050728 | 6.11° C | 78% | 1009.1 hPa | - | - | - | - |
| 1778049528 | 5.56° C | 77% | 1009.2 hPa | - | - | - | - |
| 1778048926 | 6.11° C | 78% | 1009.3 hPa | - | - | - | - |
| 1778048325 | 5.56° C | 77% | 1009.2 hPa | - | - | - | - |
| 1778046523 | 5.56° C | 77% | 1009.1 hPa | - | - | - | - |
| 1778045922 | 6.11° C | 77% | 1009.2 hPa | - | - | - | - |
| 1778045321 | 6.11° C | 78% | 1009 hPa | - | - | - | - |
| 1778043519 | 6.11° C | 77% | 1008.8 hPa | - | - | - | - |
| 1778042918 | 6.11° C | 78% | 1008.9 hPa | - | - | - | - |
| 1778042317 | 6.67° C | 76% | 1008.8 hPa | - | - | - | - |
| 1778041716 | 6.67° C | 76% | 1008.8 hPa | - | - | - | - |
| 1778040515 | 7.22° C | 78% | 1008.9 hPa | - | - | - | - |
| 1778039913 | 6.67° C | 79% | 1008.9 hPa | - | - | - | - |
| 1778039312 | 6.67° C | 80% | 1009.1 hPa | - | - | - | - |
| 1778038712 | 7.22° C | 79% | 1009 hPa | - | - | - | - |
| 1778038111 | 6.67° C | 80% | 1009 hPa | - | - | - | - |
| 1778037510 | 7.22° C | 78% | 1009.1 hPa | - | - | - | - |
| 1778036909 | 6.67° C | 79% | 1009.1 hPa | - | - | - | - |
| 1778036309 | 7.22° C | 79% | 1009 hPa | - | - | - | - |
| 1778035707 | 6.67° C | 80% | 1009 hPa | - | - | - | - |
* Rain since midnight (hover to see other rain measurements)
** Current wind speed in m/s (hover to see current wind gust speed)